createdAt,value
2018-11-03T00:00:49.254Z,2.33
2018-11-03T00:01:49.248Z,2.40
2018-11-03T00:02:49.235Z,2.33
2018-11-03T00:03:49.235Z,2.25
2018-11-03T00:04:50.760Z,2.29
2018-11-03T00:05:49.206Z,2.17
2018-11-03T00:06:49.190Z,2.25
2018-11-03T00:07:49.204Z,2.17
2018-11-03T00:08:49.188Z,2.25
2018-11-03T00:09:49.165Z,2.15
2018-11-03T00:10:49.585Z,2.14
2018-11-03T00:11:49.137Z,2.18
2018-11-03T00:12:49.131Z,2.21
2018-11-03T00:13:49.125Z,2.14
2018-11-03T00:14:49.112Z,2.22
2018-11-03T00:15:49.096Z,2.17
2018-11-03T00:16:49.130Z,2.21
2018-11-03T00:17:49.127Z,2.15
2018-11-03T00:18:49.065Z,2.07
2018-11-03T00:19:49.052Z,2.06
2018-11-03T00:20:49.038Z,2.11
2018-11-03T00:21:49.029Z,2.10
2018-11-03T00:22:49.051Z,2.11
2018-11-03T00:23:49.010Z,2.03
2018-11-03T00:24:49.005Z,2.01
2018-11-03T00:25:48.985Z,2.15
2018-11-03T00:26:48.977Z,2.11
2018-11-03T00:27:48.975Z,2.01
2018-11-03T00:28:49.010Z,2.11
2018-11-03T00:29:48.951Z,2.06
2018-11-03T00:30:48.940Z,2.10
2018-11-03T00:31:48.939Z,2.12
2018-11-03T00:32:48.916Z,2.10
2018-11-03T00:33:48.922Z,2.10
2018-11-03T00:34:48.936Z,2.10
2018-11-03T00:35:48.879Z,2.22
2018-11-03T00:36:48.872Z,2.30
2018-11-03T00:37:48.860Z,2.25
2018-11-03T00:38:48.861Z,2.28
2018-11-03T00:39:48.846Z,2.22
2018-11-03T00:40:48.905Z,2.17
2018-11-03T00:41:48.831Z,2.18
2018-11-03T00:42:48.866Z,2.21
2018-11-03T00:43:48.801Z,2.17
2018-11-03T00:44:48.785Z,2.10
2018-11-03T00:45:48.790Z,2.11
2018-11-03T00:46:48.823Z,2.04
2018-11-03T00:47:48.781Z,2.07
2018-11-03T00:48:48.758Z,2.04
2018-11-03T00:49:48.742Z,2.03
2018-11-03T00:50:48.725Z,2.00
2018-11-03T00:51:48.714Z,2.04
2018-11-03T00:52:48.742Z,2.00
2018-11-03T00:53:48.692Z,2.01
2018-11-03T00:54:48.697Z,1.97
2018-11-03T00:55:48.669Z,2.01
2018-11-03T00:56:48.664Z,2.04
2018-11-03T00:57:48.653Z,2.03
2018-11-03T00:58:48.689Z,2.11
2018-11-03T00:59:48.628Z,2.03
2018-11-03T01:00:48.624Z,2.07
2018-11-03T01:01:48.605Z,2.10
2018-11-03T01:02:48.615Z,2.01
2018-11-03T01:03:48.588Z,2.03
2018-11-03T01:04:48.606Z,2.01
2018-11-03T01:05:48.565Z,2.00
2018-11-03T01:06:48.561Z,1.99
2018-11-03T01:07:48.548Z,2.06
2018-11-03T01:08:48.544Z,2.01
2018-11-03T01:09:48.517Z,2.10
2018-11-03T01:10:48.611Z,2.03
2018-11-03T01:11:48.501Z,2.07
2018-11-03T01:12:48.488Z,2.04
2018-11-03T01:13:48.475Z,2.01
2018-11-03T01:14:48.465Z,1.99
2018-11-03T01:15:48.474Z,2.03
2018-11-03T01:16:48.493Z,2.06
2018-11-03T01:17:48.432Z,2.03
2018-11-03T01:18:48.421Z,2.07
2018-11-03T01:19:48.410Z,2.04
2018-11-03T01:20:48.402Z,2.03
2018-11-03T01:21:48.422Z,1.99
2018-11-03T01:22:48.410Z,1.97
2018-11-03T01:23:48.445Z,2.00
2018-11-03T01:24:48.357Z,2.03
2018-11-03T01:25:48.358Z,1.95
2018-11-03T01:26:48.342Z,2.03
2018-11-03T01:27:48.329Z,2.03
2018-11-03T01:28:48.368Z,1.99
2018-11-03T01:29:48.308Z,2.04
2018-11-03T01:30:48.300Z,2.04
2018-11-03T01:31:48.288Z,2.01
2018-11-03T01:32:48.272Z,2.00
2018-11-03T01:33:48.281Z,2.00
2018-11-03T01:34:48.535Z,2.06
2018-11-03T01:35:48.241Z,2.01
2018-11-03T01:36:48.236Z,1.99
2018-11-03T01:37:48.224Z,1.93
2018-11-03T01:38:48.212Z,2.10
2018-11-03T01:39:48.216Z,2.00
2018-11-03T01:40:48.219Z,2.00
2018-11-03T01:41:48.177Z,2.03
2018-11-03T01:42:48.166Z,2.03
2018-11-03T01:43:48.160Z,2.11
2018-11-03T01:44:48.147Z,2.11
2018-11-03T01:45:48.148Z,1.95
2018-11-03T01:46:48.173Z,1.99
2018-11-03T01:47:48.122Z,2.00
2018-11-03T01:48:48.108Z,2.07
2018-11-03T01:49:48.101Z,2.11
2018-11-03T01:50:48.093Z,2.04
2018-11-03T01:51:48.072Z,2.06
2018-11-03T01:52:48.095Z,2.01
2018-11-03T01:53:48.066Z,2.01
2018-11-03T01:54:48.040Z,2.07
2018-11-03T01:55:48.033Z,2.03
2018-11-03T01:56:48.026Z,2.10
2018-11-03T01:57:48.004Z,2.03
2018-11-03T01:58:48.041Z,2.06
2018-11-03T01:59:47.993Z,2.11
2018-11-03T02:00:47.973Z,2.07
2018-11-03T02:01:47.964Z,2.12
2018-11-03T02:02:47.971Z,2.25
2018-11-03T02:03:47.944Z,2.19
2018-11-03T02:04:47.970Z,2.21
2018-11-03T02:05:47.920Z,2.22
2018-11-03T02:06:47.915Z,2.25
2018-11-03T02:07:47.917Z,2.32
2018-11-03T02:08:47.893Z,2.30
2018-11-03T02:09:47.884Z,2.30
2018-11-03T02:10:47.913Z,2.24
2018-11-03T02:11:47.866Z,2.22
2018-11-03T02:12:47.846Z,2.28
2018-11-03T02:13:47.835Z,2.33
2018-11-03T02:14:47.847Z,2.29
2018-11-03T02:15:47.826Z,2.30
2018-11-03T02:16:47.857Z,2.33
2018-11-03T02:17:47.805Z,2.32
2018-11-03T02:18:47.782Z,2.43
2018-11-03T02:19:47.772Z,2.37
2018-11-03T02:20:47.790Z,2.36
2018-11-03T02:21:47.757Z,2.39
2018-11-03T02:22:47.784Z,2.36
2018-11-03T02:23:47.733Z,2.35
2018-11-03T02:24:47.717Z,2.40
2018-11-03T02:25:47.711Z,2.30
2018-11-03T02:26:47.706Z,2.35
2018-11-03T02:27:47.718Z,2.33
2018-11-03T02:28:47.719Z,2.29
2018-11-03T02:29:47.669Z,2.39
2018-11-03T02:30:47.664Z,2.37
2018-11-03T02:31:47.647Z,2.33
2018-11-03T02:32:47.633Z,2.32
2018-11-03T02:33:47.623Z,2.28
2018-11-03T02:34:47.673Z,2.29
2018-11-03T02:35:47.600Z,2.28
2018-11-03T02:36:47.593Z,2.30
2018-11-03T02:37:47.579Z,2.28
2018-11-03T02:38:47.580Z,2.25
2018-11-03T02:39:47.563Z,2.25
2018-11-03T02:40:47.608Z,2.28
2018-11-03T02:41:47.536Z,2.24
2018-11-03T02:42:47.525Z,2.18
2018-11-03T02:43:47.517Z,2.22
2018-11-03T02:44:47.504Z,2.21
2018-11-03T02:45:47.493Z,2.24
2018-11-03T02:46:47.531Z,2.24
2018-11-03T02:47:47.477Z,2.19
2018-11-03T02:48:47.468Z,2.22
2018-11-03T02:49:47.451Z,2.21
2018-11-03T02:50:47.442Z,2.29
2018-11-03T02:51:47.461Z,2.18
2018-11-03T02:52:47.482Z,2.28
2018-11-03T02:53:47.413Z,2.22
2018-11-03T02:54:47.419Z,2.22
2018-11-03T02:55:47.396Z,2.24
2018-11-03T02:56:47.377Z,2.22
2018-11-03T02:57:47.385Z,2.30
2018-11-03T02:58:47.401Z,2.24
2018-11-03T02:59:47.350Z,2.22
2018-11-03T03:00:47.356Z,2.33
2018-11-03T03:01:47.330Z,2.28
2018-11-03T03:02:47.320Z,2.40
2018-11-03T03:03:47.304Z,2.29
2018-11-03T03:04:47.363Z,2.42
2018-11-03T03:05:47.280Z,2.40
2018-11-03T03:06:47.292Z,2.39
2018-11-03T03:07:47.269Z,2.37
2018-11-03T03:08:47.253Z,2.40
2018-11-03T03:09:47.237Z,2.36
2018-11-03T03:10:47.278Z,2.40
2018-11-03T03:11:47.225Z,2.33
2018-11-03T03:12:47.209Z,2.40
2018-11-03T03:13:47.210Z,2.40
2018-11-03T03:14:47.186Z,2.37
2018-11-03T03:15:47.180Z,2.36
2018-11-03T03:16:47.210Z,2.35
2018-11-03T03:17:47.158Z,2.42
2018-11-03T03:18:47.140Z,2.39
2018-11-03T03:19:47.151Z,2.48
2018-11-03T03:20:47.124Z,2.35
2018-11-03T03:21:47.109Z,2.36
2018-11-03T03:22:47.133Z,2.36
2018-11-03T03:23:47.090Z,2.43
2018-11-03T03:24:47.078Z,2.30
2018-11-03T03:25:47.088Z,2.37
2018-11-03T03:26:47.055Z,2.35
2018-11-03T03:27:47.047Z,2.45
2018-11-03T03:28:47.152Z,2.36
2018-11-03T03:29:47.025Z,2.30
2018-11-03T03:30:47.023Z,2.30
2018-11-03T03:31:47.020Z,2.33
2018-11-03T03:32:46.990Z,2.30
2018-11-03T03:33:46.982Z,2.28
2018-11-03T03:34:47.000Z,2.30
2018-11-03T03:35:46.967Z,2.30
2018-11-03T03:36:46.953Z,2.35
2018-11-03T03:37:46.946Z,2.32
2018-11-03T03:38:46.928Z,2.24
2018-11-03T03:39:46.923Z,2.24
2018-11-03T03:40:46.956Z,2.21
2018-11-03T03:41:46.893Z,2.17
2018-11-03T03:42:46.885Z,2.28
2018-11-03T03:43:46.877Z,2.14
2018-11-03T03:44:46.872Z,2.21
2018-11-03T03:45:46.855Z,2.18
2018-11-03T03:46:46.905Z,2.19
2018-11-03T03:47:46.837Z,2.19
2018-11-03T03:48:46.823Z,2.25
2018-11-03T03:49:46.815Z,2.19
2018-11-03T03:50:46.808Z,2.19
2018-11-03T03:51:46.793Z,2.17
2018-11-03T03:52:46.842Z,2.17
2018-11-03T03:53:46.768Z,2.28
2018-11-03T03:54:46.765Z,2.17
2018-11-03T03:55:46.751Z,2.22
2018-11-03T03:56:46.740Z,2.19
2018-11-03T03:57:46.733Z,2.21
2018-11-03T03:58:46.752Z,2.22
2018-11-03T03:59:46.720Z,2.19
2018-11-03T04:00:46.701Z,2.15
2018-11-03T04:01:46.686Z,2.12
2018-11-03T04:02:46.671Z,2.07
2018-11-03T04:03:46.665Z,2.11
2018-11-03T04:04:46.732Z,2.03
2018-11-03T04:05:46.637Z,2.12
2018-11-03T04:06:46.643Z,2.07
2018-11-03T04:07:46.633Z,2.03
2018-11-03T04:08:46.611Z,2.04
2018-11-03T04:09:46.599Z,2.04
2018-11-03T04:10:46.745Z,1.97
2018-11-03T04:11:46.582Z,1.99
2018-11-03T04:12:46.573Z,2.04
2018-11-03T04:13:46.578Z,1.87
2018-11-03T04:14:46.560Z,2.06
2018-11-03T04:15:46.532Z,1.93
2018-11-03T04:16:46.580Z,1.99
2018-11-03T04:17:46.526Z,1.99
2018-11-03T04:18:46.509Z,1.92
2018-11-03T04:19:46.488Z,2.03
2018-11-03T04:20:46.482Z,1.99
2018-11-03T04:21:46.468Z,1.99
2018-11-03T04:22:46.498Z,1.93
2018-11-03T04:23:46.450Z,1.97
2018-11-03T04:24:46.439Z,2.06
2018-11-03T04:25:46.424Z,1.97
2018-11-03T04:26:46.418Z,1.99
2018-11-03T04:27:46.414Z,1.99
2018-11-03T04:28:46.470Z,1.89
2018-11-03T04:29:46.387Z,1.82
2018-11-03T04:30:46.380Z,1.80
2018-11-03T04:31:46.365Z,1.84
2018-11-03T04:32:46.357Z,1.73
2018-11-03T04:33:46.339Z,1.78
2018-11-03T04:34:46.381Z,1.71
2018-11-03T04:35:46.339Z,1.69
2018-11-03T04:36:46.312Z,1.73
2018-11-03T04:37:46.299Z,1.69
2018-11-03T04:38:46.307Z,1.63
2018-11-03T04:39:46.281Z,1.73
2018-11-03T04:40:46.326Z,1.67
2018-11-03T04:41:46.253Z,1.64
2018-11-03T04:42:46.247Z,1.57
2018-11-03T04:43:46.250Z,1.56
2018-11-03T04:44:46.229Z,1.63
2018-11-03T04:45:46.218Z,1.62
2018-11-03T04:46:46.261Z,1.56
2018-11-03T04:47:46.196Z,1.46
2018-11-03T04:48:46.179Z,1.46
2018-11-03T04:49:46.184Z,1.49
2018-11-03T04:50:46.163Z,1.48
2018-11-03T04:51:46.148Z,1.44
2018-11-03T04:52:46.196Z,1.42
2018-11-03T04:53:46.135Z,1.46
2018-11-03T04:54:46.123Z,1.46
2018-11-03T04:55:46.112Z,1.42
2018-11-03T04:56:46.101Z,1.44
2018-11-03T04:57:46.107Z,1.34
2018-11-03T04:58:46.111Z,1.21
2018-11-03T04:59:46.082Z,1.35
2018-11-03T05:00:46.062Z,1.26
2018-11-03T05:01:46.044Z,1.24
2018-11-03T05:02:46.043Z,1.28
2018-11-03T05:03:46.039Z,1.26
2018-11-03T05:04:46.082Z,1.20
2018-11-03T05:05:46.007Z,1.24
2018-11-03T05:06:46.005Z,1.16
2018-11-03T05:07:45.983Z,1.16
2018-11-03T05:08:45.974Z,1.12
2018-11-03T05:09:46.018Z,1.12
2018-11-03T05:10:46.007Z,1.10
2018-11-03T05:11:45.942Z,1.10
2018-11-03T05:12:45.934Z,1.02
2018-11-03T05:13:45.924Z,1.03
2018-11-03T05:14:45.903Z,1.02
2018-11-03T05:15:45.890Z,1.12
2018-11-03T05:16:45.926Z,1.06
2018-11-03T05:17:45.873Z,0.96
2018-11-03T05:18:45.865Z,0.99
2018-11-03T05:19:45.864Z,1.00
2018-11-03T05:20:45.846Z,0.92
2018-11-03T05:21:45.835Z,0.87
2018-11-03T05:22:46.124Z,0.96
2018-11-03T05:23:45.805Z,0.88
2018-11-03T05:24:45.805Z,0.87
2018-11-03T05:25:45.789Z,0.90
2018-11-03T05:26:45.793Z,0.78
2018-11-03T05:27:45.764Z,0.74
2018-11-03T05:28:45.796Z,0.78
2018-11-03T05:29:45.764Z,0.85
2018-11-03T05:30:45.733Z,0.76
2018-11-03T05:31:45.729Z,0.73
2018-11-03T05:32:45.721Z,0.72
2018-11-03T05:33:45.708Z,0.66
2018-11-03T05:34:45.746Z,0.64
2018-11-03T05:35:45.690Z,0.67
2018-11-03T05:36:45.670Z,0.63
2018-11-03T05:37:45.663Z,0.67
2018-11-03T05:38:45.668Z,0.69
2018-11-03T05:39:45.638Z,0.62
2018-11-03T05:40:45.673Z,0.64
2018-11-03T05:41:45.628Z,0.60
2018-11-03T05:42:45.614Z,0.69
2018-11-03T05:43:45.605Z,0.73
2018-11-03T05:44:45.592Z,0.69
2018-11-03T05:45:45.577Z,0.67
2018-11-03T05:46:45.624Z,0.60
2018-11-03T05:47:45.564Z,0.72
2018-11-03T05:48:45.544Z,0.55
2018-11-03T05:49:45.529Z,0.62
2018-11-03T05:50:45.522Z,0.66
2018-11-03T05:51:45.516Z,0.63
2018-11-03T05:52:45.672Z,0.60
2018-11-03T05:53:45.489Z,0.70
2018-11-03T05:54:45.475Z,0.59
2018-11-03T05:55:45.499Z,0.64
2018-11-03T05:56:45.454Z,0.56
2018-11-03T05:57:45.483Z,0.62
2018-11-03T05:58:45.533Z,0.60
2018-11-03T05:59:45.424Z,0.50
2018-11-03T06:00:45.435Z,0.62
2018-11-03T06:01:45.406Z,0.56
2018-11-03T06:02:45.402Z,0.56
2018-11-03T06:03:45.439Z,0.55
2018-11-03T06:04:45.414Z,0.41
2018-11-03T06:05:45.364Z,0.56
2018-11-03T06:06:45.357Z,0.53
2018-11-03T06:07:45.376Z,0.51
2018-11-03T06:08:45.394Z,0.50
2018-11-03T06:09:45.332Z,0.55
2018-11-03T06:10:45.355Z,0.47
2018-11-03T06:11:45.302Z,0.43
2018-11-03T06:12:45.284Z,0.47
2018-11-03T06:13:45.288Z,0.45
2018-11-03T06:14:45.267Z,0.51
2018-11-03T06:15:45.365Z,0.47
2018-11-03T06:16:45.302Z,0.45
2018-11-03T06:17:45.241Z,0.50
2018-11-03T06:18:45.227Z,0.47
2018-11-03T06:19:45.214Z,0.50
2018-11-03T06:20:45.204Z,0.44
2018-11-03T06:21:45.238Z,0.44
2018-11-03T06:22:45.248Z,0.59
2018-11-03T06:23:45.207Z,0.48
2018-11-03T06:24:45.157Z,0.59
2018-11-03T06:25:45.146Z,0.70
2018-11-03T06:26:45.171Z,0.64
2018-11-03T06:27:45.148Z,0.72
2018-11-03T06:28:45.166Z,0.78
2018-11-03T06:29:45.109Z,0.73
2018-11-03T06:30:45.099Z,0.66
2018-11-03T06:31:45.095Z,0.69
2018-11-03T06:32:45.084Z,0.70
2018-11-03T06:33:45.068Z,0.69
2018-11-03T06:34:45.113Z,0.69
2018-11-03T06:35:45.038Z,0.67
2018-11-03T06:36:45.034Z,0.69
2018-11-03T06:37:45.019Z,0.72
2018-11-03T06:38:45.051Z,0.70
2018-11-03T06:39:45.009Z,0.63
2018-11-03T06:40:45.067Z,0.63
2018-11-03T06:41:44.975Z,0.70
2018-11-03T06:42:44.975Z,0.63
2018-11-03T06:43:44.957Z,0.67
2018-11-03T06:44:44.941Z,0.72
2018-11-03T06:45:44.942Z,0.64
2018-11-03T06:46:45.063Z,0.69
2018-11-03T06:47:44.916Z,0.78
2018-11-03T06:48:44.904Z,0.72
2018-11-03T06:49:44.887Z,0.64
2018-11-03T06:50:44.876Z,0.70
2018-11-03T06:51:44.957Z,0.80
2018-11-03T06:52:45.054Z,0.81
2018-11-03T06:53:44.848Z,0.81
2018-11-03T06:54:44.855Z,0.92
2018-11-03T06:55:44.827Z,0.91
2018-11-03T06:56:44.819Z,0.92
2018-11-03T06:57:44.822Z,0.91
2018-11-03T06:58:44.855Z,1.02
2018-11-03T06:59:44.784Z,1.03
2018-11-03T07:00:44.782Z,0.99
2018-11-03T07:01:44.767Z,1.02
2018-11-03T07:02:44.753Z,1.10
2018-11-03T07:03:44.755Z,1.17
2018-11-03T07:04:44.781Z,1.21
2018-11-03T07:05:44.724Z,1.18
2018-11-03T07:06:44.706Z,1.26
2018-11-03T07:07:44.700Z,1.30
2018-11-03T07:08:44.687Z,1.24
2018-11-03T07:09:44.683Z,1.24
2018-11-03T07:10:44.732Z,1.34
2018-11-03T07:11:44.714Z,1.34
2018-11-03T07:12:44.977Z,1.42
2018-11-03T07:13:44.632Z,1.42
2018-11-03T07:14:44.625Z,1.39
2018-11-03T07:15:44.621Z,1.46
2018-11-03T07:16:44.638Z,1.48
2018-11-03T07:17:44.590Z,1.52
2018-11-03T07:18:44.580Z,1.62
2018-11-03T07:19:44.574Z,1.63
2018-11-03T07:20:44.657Z,1.60
2018-11-03T07:21:44.628Z,1.66
2018-11-03T07:22:44.590Z,1.62
2018-11-03T07:23:44.566Z,1.67
2018-11-03T07:24:44.552Z,1.77
2018-11-03T07:25:44.559Z,1.73
2018-11-03T07:26:44.505Z,1.73
2018-11-03T07:27:44.491Z,1.87
2018-11-03T07:28:44.537Z,1.85
2018-11-03T07:29:44.590Z,1.99
2018-11-03T07:30:44.457Z,1.99
2018-11-03T07:31:44.475Z,2.04
2018-11-03T07:32:44.456Z,2.03
2018-11-03T07:33:44.422Z,2.14
2018-11-03T07:34:44.617Z,2.21
2018-11-03T07:35:44.395Z,2.22
2018-11-03T07:36:44.396Z,2.29
2018-11-03T07:37:44.373Z,2.32
2018-11-03T07:38:44.371Z,2.37
2018-11-03T07:39:44.379Z,2.48
2018-11-03T07:40:44.409Z,2.42
2018-11-03T07:41:44.337Z,2.39
2018-11-03T07:42:44.407Z,2.54
2018-11-03T07:43:44.348Z,2.65
2018-11-03T07:44:44.312Z,2.57
2018-11-03T07:45:44.294Z,2.63
2018-11-03T07:46:44.322Z,2.68
2018-11-03T07:47:44.348Z,2.75
2018-11-03T07:48:44.357Z,2.81
2018-11-03T07:49:44.259Z,2.93
2018-11-03T07:50:44.316Z,2.97
2018-11-03T07:51:44.313Z,2.93
2018-11-03T07:52:44.278Z,3.08
2018-11-03T07:53:44.223Z,3.08
2018-11-03T07:54:44.219Z,3.20
2018-11-03T07:55:44.193Z,3.26
2018-11-03T07:56:44.173Z,3.35
2018-11-03T07:57:44.183Z,3.42
2018-11-03T07:58:44.204Z,3.44
2018-11-03T07:59:44.151Z,3.59
2018-11-03T08:00:44.307Z,3.59
2018-11-03T08:01:44.128Z,3.51
2018-11-03T08:02:44.116Z,3.62
2018-11-03T08:03:44.098Z,3.69
2018-11-03T08:04:44.127Z,3.82
2018-11-03T08:05:44.135Z,3.76
2018-11-03T08:06:44.060Z,3.78
2018-11-03T08:07:44.051Z,3.90
2018-11-03T08:08:44.037Z,3.94
2018-11-03T08:09:44.028Z,4.05
2018-11-03T08:10:44.074Z,4.05
2018-11-03T08:11:44.065Z,4.06
2018-11-03T08:12:44.017Z,4.17
2018-11-03T08:13:43.991Z,4.24
2018-11-03T08:14:43.981Z,4.30
2018-11-03T08:15:44.071Z,4.35
2018-11-03T08:16:44.042Z,4.34
2018-11-03T08:17:43.950Z,4.41
2018-11-03T08:18:43.930Z,4.46
2018-11-03T08:19:43.932Z,4.60
2018-11-03T08:20:43.907Z,4.60
2018-11-03T08:21:43.904Z,4.64
2018-11-03T08:22:43.931Z,4.78
2018-11-03T08:23:43.879Z,4.88
2018-11-03T08:24:43.867Z,4.96
2018-11-03T08:25:43.853Z,4.94
2018-11-03T08:26:43.842Z,5.00
2018-11-03T08:27:43.840Z,5.03
2018-11-03T08:28:43.869Z,5.04
2018-11-03T08:29:43.808Z,5.16
2018-11-03T08:30:43.797Z,5.29
2018-11-03T08:31:44.014Z,5.33
2018-11-03T08:32:43.786Z,5.40
2018-11-03T08:33:43.812Z,5.40
2018-11-03T08:34:44.139Z,5.41
2018-11-03T08:35:43.880Z,5.52
2018-11-03T08:36:43.872Z,5.54
2018-11-03T08:37:43.955Z,5.57
2018-11-03T08:38:43.726Z,5.52
2018-11-03T08:39:43.833Z,5.59
2018-11-03T08:40:43.859Z,5.77
2018-11-03T08:41:43.699Z,5.77
2018-11-03T08:42:43.690Z,5.79
2018-11-03T08:43:43.697Z,5.93
2018-11-03T08:44:43.660Z,6.02
2018-11-03T08:45:43.674Z,6.05
2018-11-03T08:46:43.689Z,6.03
2018-11-03T08:47:43.616Z,5.97
2018-11-03T08:48:43.696Z,6.09
2018-11-03T08:49:43.751Z,6.15
2018-11-03T08:50:43.681Z,6.12
2018-11-03T08:51:43.885Z,6.08
2018-11-03T08:52:43.713Z,6.08
2018-11-03T08:53:43.763Z,6.19
2018-11-03T08:54:43.597Z,6.13
2018-11-03T08:55:43.533Z,6.12
2018-11-03T08:56:43.605Z,6.19
2018-11-03T08:57:43.522Z,6.30
2018-11-03T08:58:43.595Z,6.18
2018-11-03T08:59:43.693Z,6.19
2018-11-03T09:00:43.475Z,6.27
2018-11-03T09:01:43.514Z,6.27
2018-11-03T09:02:43.517Z,6.24
2018-11-03T09:03:43.491Z,6.21
2018-11-03T09:04:43.489Z,6.19
2018-11-03T09:05:43.433Z,6.28
2018-11-03T09:06:43.462Z,6.18
2018-11-03T09:07:43.424Z,6.21
2018-11-03T09:08:43.426Z,6.21
2018-11-03T09:09:43.416Z,6.18
2018-11-03T09:10:43.420Z,6.24
2018-11-03T09:11:43.364Z,6.25
2018-11-03T09:12:43.357Z,6.32
2018-11-03T09:13:43.359Z,6.37
2018-11-03T09:14:43.369Z,6.40
2018-11-03T09:15:43.335Z,6.38
2018-11-03T09:16:43.406Z,6.38
2018-11-03T09:17:43.330Z,6.34
2018-11-03T09:18:43.337Z,6.53
2018-11-03T09:19:43.279Z,6.53
2018-11-03T09:20:43.264Z,6.50
2018-11-03T09:21:43.344Z,6.49
2018-11-03T09:22:43.375Z,6.60
2018-11-03T09:23:43.239Z,6.61
2018-11-03T09:24:43.236Z,6.61
2018-11-03T09:25:43.293Z,6.65
2018-11-03T09:26:43.211Z,6.79
2018-11-03T09:27:43.252Z,6.74
2018-11-03T09:28:43.266Z,6.79
2018-11-03T09:29:43.197Z,6.91
2018-11-03T09:30:43.183Z,6.86
2018-11-03T09:31:43.152Z,7.06
2018-11-03T09:32:43.154Z,7.03
2018-11-03T09:33:43.144Z,7.16
2018-11-03T09:34:43.219Z,7.08
2018-11-03T09:35:43.106Z,7.11
2018-11-03T09:36:43.137Z,7.26
2018-11-03T09:37:43.074Z,7.29
2018-11-03T09:38:43.150Z,7.21
2018-11-03T09:39:43.072Z,7.19
2018-11-03T09:40:43.101Z,7.26
2018-11-03T09:41:43.054Z,7.43
2018-11-03T09:42:43.037Z,7.46
2018-11-03T09:43:43.086Z,7.54
2018-11-03T09:44:43.127Z,7.61
2018-11-03T09:45:43.014Z,7.60
2018-11-03T09:46:43.085Z,7.77
2018-11-03T09:47:42.963Z,7.88
2018-11-03T09:48:43.035Z,7.94
2018-11-03T09:49:42.940Z,7.95
2018-11-03T09:50:43.063Z,7.95
2018-11-03T09:51:42.929Z,7.98
2018-11-03T09:52:43.031Z,8.05
2018-11-03T09:53:42.935Z,8.06
2018-11-03T09:54:42.896Z,8.10
2018-11-03T09:55:42.876Z,8.16
2018-11-03T09:56:42.952Z,8.24
2018-11-03T09:57:42.895Z,8.12
2018-11-03T09:58:42.966Z,8.29
2018-11-03T09:59:42.846Z,8.17
2018-11-03T10:00:42.824Z,8.24
2018-11-03T10:01:42.846Z,8.32
2018-11-03T10:02:42.976Z,8.24
2018-11-03T10:03:42.838Z,8.21
2018-11-03T10:04:42.906Z,8.26
2018-11-03T10:05:42.821Z,8.29
2018-11-03T10:06:42.845Z,8.46
2018-11-03T10:07:42.761Z,8.52
2018-11-03T10:08:42.756Z,8.50
2018-11-03T10:09:42.749Z,8.63
2018-11-03T10:10:42.827Z,8.57
2018-11-03T10:11:42.703Z,8.62
2018-11-03T10:12:42.696Z,8.74
2018-11-03T10:13:42.685Z,8.68
2018-11-03T10:14:42.855Z,8.67
2018-11-03T10:15:42.742Z,8.77
2018-11-03T10:16:42.867Z,8.70
2018-11-03T10:17:42.749Z,8.70
2018-11-03T10:18:42.756Z,8.68
2018-11-03T10:19:42.693Z,8.75
2018-11-03T10:20:42.630Z,8.81
2018-11-03T10:21:42.630Z,8.83
2018-11-03T10:22:42.703Z,8.80
2018-11-03T10:23:42.580Z,8.85
2018-11-03T10:24:42.650Z,8.86
2018-11-03T10:25:42.558Z,8.90
2018-11-03T10:26:42.560Z,8.93
2018-11-03T10:27:42.535Z,8.96
2018-11-03T10:28:42.579Z,9.08
2018-11-03T10:29:42.514Z,9.12
2018-11-03T10:30:42.494Z,9.18
2018-11-03T10:31:42.489Z,9.26
2018-11-03T10:32:42.482Z,9.30
2018-11-03T10:33:42.574Z,9.29
2018-11-03T10:34:42.500Z,9.36
2018-11-03T10:35:42.443Z,9.40
2018-11-03T10:36:42.425Z,9.47
2018-11-03T10:37:42.437Z,9.60
2018-11-03T10:38:42.423Z,9.54
2018-11-03T10:39:42.449Z,9.54
2018-11-03T10:40:42.601Z,9.55
2018-11-03T10:41:42.439Z,9.67
2018-11-03T10:42:42.362Z,9.66
2018-11-03T10:43:42.560Z,9.63
2018-11-03T10:44:42.344Z,9.67
2018-11-03T10:45:42.376Z,9.72
2018-11-03T10:46:42.383Z,9.83
2018-11-03T10:47:42.313Z,9.70
2018-11-03T10:48:42.353Z,9.67
2018-11-03T10:49:42.284Z,9.81
2018-11-03T10:50:42.304Z,9.81
2018-11-03T10:51:42.321Z,9.81
2018-11-03T10:52:42.289Z,9.84
2018-11-03T10:53:42.356Z,9.93
2018-11-03T10:54:42.229Z,9.98
2018-11-03T10:55:42.220Z,9.98
2018-11-03T10:56:42.225Z,10.02
2018-11-03T10:57:42.218Z,10.06
2018-11-03T10:58:42.236Z,10.02
2018-11-03T10:59:42.174Z,10.21
2018-11-03T11:00:42.166Z,10.28
2018-11-03T11:01:42.164Z,10.34
2018-11-03T11:02:42.154Z,10.28
2018-11-03T11:03:42.251Z,10.45
2018-11-03T11:04:42.164Z,10.45
2018-11-03T11:05:42.152Z,10.64
2018-11-03T11:06:42.109Z,10.57
2018-11-03T11:07:42.088Z,10.72
2018-11-03T11:08:42.086Z,10.60
2018-11-03T11:09:42.083Z,10.55
2018-11-03T11:10:42.226Z,10.78
2018-11-03T11:11:42.055Z,10.67
2018-11-03T11:12:42.036Z,10.62
2018-11-03T11:13:42.046Z,10.65
2018-11-03T11:14:42.035Z,10.64
2018-11-03T11:15:42.032Z,10.62
2018-11-03T11:16:42.115Z,10.64
2018-11-03T11:17:41.983Z,10.52
2018-11-03T11:18:41.970Z,10.58
2018-11-03T11:19:41.957Z,10.65
2018-11-03T11:20:41.947Z,10.58
2018-11-03T11:21:41.996Z,10.62
2018-11-03T11:22:41.958Z,10.58
2018-11-03T11:23:42.003Z,10.64
2018-11-03T11:24:41.979Z,10.64
2018-11-03T11:25:41.891Z,10.61
2018-11-03T11:26:41.885Z,10.70
2018-11-03T11:27:41.894Z,10.80
2018-11-03T11:28:41.893Z,10.93
2018-11-03T11:29:41.862Z,10.78
2018-11-03T11:30:41.838Z,10.76
2018-11-03T11:31:41.827Z,10.80
2018-11-03T11:32:41.841Z,10.76
2018-11-03T11:33:41.831Z,10.76
2018-11-03T11:34:41.841Z,10.80
2018-11-03T11:35:41.785Z,10.95
2018-11-03T11:36:41.778Z,10.79
2018-11-03T11:37:41.880Z,10.79
2018-11-03T11:38:41.781Z,10.76
2018-11-03T11:39:41.767Z,10.70
2018-11-03T11:40:41.775Z,10.83
2018-11-03T11:41:41.728Z,10.85
2018-11-03T11:42:41.733Z,10.86
2018-11-03T11:43:41.708Z,10.90
2018-11-03T11:44:41.685Z,10.80
2018-11-03T11:45:41.694Z,10.72
2018-11-03T11:46:41.726Z,10.73
2018-11-03T11:47:41.653Z,10.67
2018-11-03T11:48:41.641Z,10.67
2018-11-03T11:49:41.629Z,10.80
2018-11-03T11:50:41.618Z,10.80
2018-11-03T11:51:41.626Z,10.93
2018-11-03T11:52:41.659Z,10.86
2018-11-03T11:53:41.616Z,10.87
2018-11-03T11:54:41.609Z,10.85
2018-11-03T11:55:41.571Z,10.79
2018-11-03T11:56:41.586Z,10.78
2018-11-03T11:57:41.546Z,10.68
2018-11-03T11:58:41.595Z,10.79
2018-11-03T11:59:41.526Z,10.78
2018-11-03T12:00:41.610Z,10.85
2018-11-03T12:01:41.495Z,10.78
2018-11-03T12:02:41.582Z,10.86
2018-11-03T12:03:41.514Z,10.76
2018-11-03T12:04:41.531Z,10.79
2018-11-03T12:05:41.525Z,10.83
2018-11-03T12:06:41.458Z,10.82
2018-11-03T12:07:41.441Z,10.78
2018-11-03T12:08:41.482Z,10.83
2018-11-03T12:09:41.417Z,10.78
2018-11-03T12:10:41.471Z,10.78
2018-11-03T12:11:41.448Z,10.80
2018-11-03T12:12:41.440Z,10.79
2018-11-03T12:13:41.405Z,10.79
2018-11-03T12:14:41.418Z,10.72
2018-11-03T12:15:41.363Z,10.64
2018-11-03T12:16:41.471Z,10.67
2018-11-03T12:17:41.376Z,10.68
2018-11-03T12:18:41.326Z,10.72
2018-11-03T12:19:41.321Z,10.76
2018-11-03T12:20:41.367Z,10.72
2018-11-03T12:21:41.357Z,10.78
2018-11-03T12:22:41.477Z,10.78
2018-11-03T12:23:41.268Z,10.79
2018-11-03T12:24:41.257Z,10.73
2018-11-03T12:25:41.309Z,10.78
2018-11-03T12:26:41.267Z,10.78
2018-11-03T12:27:41.207Z,10.82
2018-11-03T12:28:41.258Z,10.75
2018-11-03T12:29:41.191Z,10.73
2018-11-03T12:30:41.240Z,10.82
2018-11-03T12:31:41.171Z,10.65
2018-11-03T12:32:41.164Z,10.75
2018-11-03T12:33:41.148Z,10.70
2018-11-03T12:34:41.182Z,10.70
2018-11-03T12:35:41.314Z,10.78
2018-11-03T12:36:41.217Z,10.68
2018-11-03T12:37:41.105Z,10.75
2018-11-03T12:38:41.270Z,10.65
2018-11-03T12:39:41.174Z,10.73
2018-11-03T12:40:41.309Z,10.70
2018-11-03T12:41:41.091Z,10.76
2018-11-03T12:42:41.041Z,10.64
2018-11-03T12:43:41.044Z,10.62
2018-11-03T12:44:41.164Z,10.70
2018-11-03T12:45:41.053Z,10.76
2018-11-03T12:46:41.299Z,10.61
2018-11-03T12:47:41.095Z,10.61
2018-11-03T12:48:40.980Z,10.73
2018-11-03T12:49:41.205Z,10.79
2018-11-03T12:50:40.963Z,10.72
2018-11-03T12:51:41.058Z,10.55
2018-11-03T12:52:41.005Z,10.60
2018-11-03T12:53:40.924Z,10.52
2018-11-03T12:54:40.987Z,10.57
2018-11-03T12:55:40.944Z,10.64
2018-11-03T12:56:40.920Z,10.43
2018-11-03T12:57:40.907Z,10.54
2018-11-03T12:58:40.962Z,10.65
2018-11-03T12:59:40.883Z,10.54
2018-11-03T13:00:40.861Z,10.52
2018-11-03T13:01:40.853Z,10.54
2018-11-03T13:02:40.835Z,10.57
2018-11-03T13:03:40.823Z,10.58
2018-11-03T13:04:40.862Z,10.64
2018-11-03T13:05:40.840Z,10.64
2018-11-03T13:06:40.824Z,10.76
2018-11-03T13:07:40.791Z,10.67
2018-11-03T13:08:40.775Z,10.80
2018-11-03T13:09:41.107Z,10.86
2018-11-03T13:10:40.887Z,10.94
2018-11-03T13:11:40.769Z,10.94
2018-11-03T13:12:40.734Z,10.86
2018-11-03T13:13:40.754Z,10.95